Time;durP1;ratioP1;P1;durP2;ratioP2;P2;SDS_P1;SDS_P2;PMS_P1;PMS_P2;Temp;Humidity;BMP_temperature;BMP_pressure;BME280_temperature;BME280_humidity;BME280_pressure;Samples;Min_cycle;Max_cycle;Signal;HPM_P1;HPM_P2
2023/04/21 00:01:31;;;;;;;;;;;;;;;7.29;100.00;100854.03;4915165;29;19922;-86
2023/04/21 00:03:56;;;;;;;;;;;;;;;7.31;100.00;100850.34;4909473;29;20467;-85
2023/04/21 00:06:22;;;;;;;;;;;;;;;7.32;100.00;100846.78;4930845;29;19945;-86
2023/04/21 00:08:48;;;;;;;;;;;;;;;7.30;100.00;100842.56;4912452;29;19948;-85
2023/04/21 00:11:14;;;;;;;;;;;;;;;7.27;100.00;100837.53;4910036;29;20420;-85
2023/04/21 00:13:39;;;;;;;;;;;;;;;7.26;100.00;100831.41;4928921;29;19929;-85
2023/04/21 00:16:05;;;;;;;;;;;;;;;7.27;100.00;100832.25;4924527;29;19923;-81
2023/04/21 00:18:31;;;;;;;;;;;;;;;7.24;100.00;100835.13;4945142;28;19923;-81
2023/04/21 00:20:56;;;;;;;;;;;;;;;7.24;100.00;100838.59;4928861;29;19922;-84
2023/04/21 00:23:22;;;;;;;;;;;;;;;7.19;100.00;100836.31;4926300;29;19923;-85
2023/04/21 00:25:48;;;;;;;;;;;;;;;7.13;100.00;100838.53;4919015;29;19942;-84
2023/04/21 00:28:13;;;;;;;;;;;;;;;7.05;100.00;100829.44;4896509;29;19919;-84
2023/04/21 00:30:39;;;;;;;;;;;;;;;7.00;100.00;100828.06;4907783;29;20368;-85
2023/04/21 00:33:05;;;;;;;;;;;;;;;6.92;100.00;100832.09;4911511;29;19926;-85
2023/04/21 00:35:30;;;;;;;;;;;;;;;6.87;100.00;100828.13;4928670;29;19923;-85
2023/04/21 00:37:56;;;;;;;;;;;;;;;6.78;100.00;100832.25;4919892;29;19923;-85
2023/04/21 00:40:22;;;;;;;;;;;;;;;6.71;100.00;100829.22;4927512;29;20408;-85
2023/04/21 00:42:47;;;;;;;;;;;;;;;6.64;100.00;100828.00;4923851;29;19923;-85
2023/04/21 00:45:16;;;;;;;;;;;;;;;6.55;100.00;100829.47;4916030;29;19926;-84
2023/04/21 00:47:42;;;;;;;;;;;;;;;6.47;100.00;100816.06;4882022;29;20547;-84
2023/04/21 00:50:10;;;;;;;;;;;;;;;6.39;100.00;100822.66;4928228;29;19925;-84
2023/04/21 00:52:38;;;;;;;;;;;;;;;6.30;100.00;100820.69;4901851;29;19927;-84
2023/04/21 00:55:04;;;;;;;;;;;;;;;6.25;100.00;100817.53;4921048;28;19919;-85
2023/04/21 00:57:31;;;;;;;;;;;;;;;6.21;100.00;100822.19;4897531;29;19919;-81
2023/04/21 00:59:56;;;;;;;;;;;;;;;6.17;100.00;100820.69;4914094;29;19950;-81
2023/04/21 01:02:23;;;;;;;;;;;;;;;6.15;100.00;100830.47;4904393;29;19923;-85
2023/04/21 01:04:49;;;;;;;;;;;;;;;6.08;100.00;100833.50;4924233;29;20278;-85
2023/04/21 01:07:15;;;;;;;;;;;;;;;6.04;100.00;100828.53;4918382;29;19919;-85
2023/04/21 01:09:40;;;;;;;;;;;;;;;6.00;100.00;100833.19;4924144;29;19930;-85
2023/04/21 01:12:07;;;;;;;;;;;;;;;6.03;100.00;100842.63;4898658;29;20003;-84
2023/04/21 01:14:37;;;;;;;;;;;;;;;6.02;100.00;100826.03;4924859;29;19962;-85
2023/04/21 01:17:06;;;;;;;;;;;;;;;6.11;100.00;100827.22;4938207;28;20372;-85
2023/04/21 01:19:34;;;;;;;;;;;;;;;6.17;100.00;100832.03;4927276;29;19927;-85
2023/04/21 01:22:01;;;;;;;;;;;;;;;6.25;100.00;100835.91;4927109;29;19919;-85
2023/04/21 01:24:36;;;;;;;;;;;;;;;6.32;100.00;100831.94;4913049;29;20520;-85
2023/04/21 01:27:02;;;;;;;;;;;;;;;6.38;100.00;100844.63;4905005;29;20439;-85
2023/04/21 01:29:31;;;;;;;;;;;;;;;6.39;100.00;100842.81;4906452;29;19922;-85
2023/04/21 01:31:56;;;;;;;;;;;;;;;6.38;100.00;100844.63;4916773;29;19919;-85
2023/04/21 01:34:23;;;;;;;;;;;;;;;6.36;100.00;100840.41;4893363;29;19926;-85
2023/04/21 01:36:49;;;;;;;;;;;;;;;6.34;100.00;100845.78;4926020;29;19923;-85
2023/04/21 01:39:15;;;;;;;;;;;;;;;6.33;100.00;100841.47;4927997;29;19925;-85
2023/04/21 01:41:41;;;;;;;;;;;;;;;6.33;100.00;100844.09;4938174;29;19923;-85
2023/04/21 01:44:06;;;;;;;;;;;;;;;6.32;100.00;100832.75;4906248;29;19919;-84
2023/04/21 01:46:32;;;;;;;;;;;;;;;6.31;100.00;100832.88;4943442;29;19954;-85
2023/04/21 01:48:57;;;;;;;;;;;;;;;6.30;100.00;100832.03;4898066;29;19965;-85
2023/04/21 01:51:25;;;;;;;;;;;;;;;6.28;100.00;100828.69;4910223;29;19919;-84
2023/04/21 01:53:51;;;;;;;;;;;;;;;6.29;100.00;100814.59;4928041;29;19925;-85
2023/04/21 01:56:17;;;;;;;;;;;;;;;6.31;100.00;100817.09;4928005;29;20796;-84
2023/04/21 01:58:43;;;;;;;;;;;;;;;6.33;100.00;100816.06;4929562;29;19923;-84
2023/04/21 02:01:08;;;;;;;;;;;;;;;6.41;100.00;100823.41;4928729;29;19930;-80
2023/04/21 02:03:34;;;;;;;;;;;;;;;6.41;100.00;100814.69;4923485;29;20010;-80
2023/04/21 02:06:00;;;;;;;;;;;;;;;6.38;100.00;100817.53;4914532;29;19919;-85
2023/04/21 02:08:26;;;;;;;;;;;;;;;6.30;100.00;100805.78;4917573;29;19926;-84
2023/04/21 02:10:51;;;;;;;;;;;;;;;6.16;100.00;100805.91;4915319;29;20315;-84
2023/04/21 02:13:17;;;;;;;;;;;;;;;6.05;100.00;100791.72;4911467;29;20005;-85
2023/04/21 02:15:43;;;;;;;;;;;;;;;6.07;100.00;100800.34;4929832;29;19929;-84
2023/04/21 02:18:09;;;;;;;;;;;;;;;6.13;100.00;100791.19;4934437;29;19978;-84
2023/04/21 02:20:36;;;;;;;;;;;;;;;6.25;100.00;100781.63;4914696;29;19919;-85
2023/04/21 02:23:01;;;;;;;;;;;;;;;6.31;100.00;100773.31;4929861;29;20014;-80
2023/04/21 02:25:28;;;;;;;;;;;;;;;6.37;100.00;100772.03;4908680;29;20006;-80
2023/04/21 02:27:54;;;;;;;;;;;;;;;6.47;100.00;100769.59;4895555;29;20405;-85
2023/04/21 02:30:19;;;;;;;;;;;;;;;6.49;100.00;100762.47;4917602;29;19919;-85
2023/04/21 02:32:45;;;;;;;;;;;;;;;6.52;100.00;100753.53;4920986;29;20372;-85
2023/04/21 02:35:11;;;;;;;;;;;;;;;6.55;100.00;100748.91;4925277;29;19923;-85
2023/04/21 02:37:37;;;;;;;;;;;;;;;6.59;100.00;100749.53;4928775;29;19970;-85
2023/04/21 02:40:04;;;;;;;;;;;;;;;6.63;100.00;100750.13;4892801;29;20287;-85
2023/04/21 02:42:31;;;;;;;;;;;;;;;6.63;100.00;100753.59;4894311;29;19927;-85
2023/04/21 02:44:57;;;;;;;;;;;;;;;6.63;100.00;100750.13;4944881;28;19970;-85
2023/04/21 02:47:22;;;;;;;;;;;;;;;6.55;100.00;100755.94;4912625;29;19922;-85
2023/04/21 02:49:48;;;;;;;;;;;;;;;6.50;100.00;100750.19;4916168;29;20434;-85
2023/04/21 02:52:14;;;;;;;;;;;;;;;6.44;100.00;100757.56;4910671;29;19925;-85
2023/04/21 02:54:40;;;;;;;;;;;;;;;6.38;100.00;100749.25;4916125;29;20317;-85
2023/04/21 02:57:06;;;;;;;;;;;;;;;6.26;100.00;100751.81;4930160;29;19925;-85
2023/04/21 02:59:32;;;;;;;;;;;;;;;6.15;100.00;100749.09;4914339;29;19926;-85
2023/04/21 03:01:59;;;;;;;;;;;;;;;6.10;100.00;100748.59;4911688;29;20503;-85
2023/04/21 03:04:24;;;;;;;;;;;;;;;6.05;100.00;100762.84;4925727;29;19919;-85
2023/04/21 03:06:51;;;;;;;;;;;;;;;6.03;100.00;100763.88;4909341;29;19919;-85
2023/04/21 03:09:16;;;;;;;;;;;;;;;6.06;100.00;100761.09;4904776;29;19919;-85
2023/04/21 03:11:42;;;;;;;;;;;;;;;6.05;100.00;100754.16;4886300;29;20337;-85
2023/04/21 03:14:08;;;;;;;;;;;;;;;6.00;100.00;100758.84;4893192;29;20144;-85
2023/04/21 03:16:33;;;;;;;;;;;;;;;6.00;100.00;100748.38;4915842;29;19967;-85
2023/04/21 03:18:59;;;;;;;;;;;;;;;6.00;100.00;100746.59;4926519;29;19942;-85
2023/04/21 03:21:24;;;;;;;;;;;;;;;5.92;100.00;100746.28;4907497;29;19923;-85
2023/04/21 03:23:51;;;;;;;;;;;;;;;5.99;100.00;100742.25;4860183;29;19919;-85
2023/04/21 03:26:17;;;;;;;;;;;;;;;6.07;100.00;100724.25;4911771;29;19931;-84
2023/04/21 03:28:44;;;;;;;;;;;;;;;6.12;100.00;100712.56;4905684;29;19920;-85
2023/04/21 03:31:10;;;;;;;;;;;;;;;6.10;100.00;100711.84;4916269;29;20470;-85
2023/04/21 03:33:35;;;;;;;;;;;;;;;6.08;100.00;100723.28;4890163;29;20006;-84
2023/04/21 03:36:01;;;;;;;;;;;;;;;6.10;100.00;100707.41;4911391;29;19919;-80
2023/04/21 03:38:29;;;;;;;;;;;;;;;6.10;100.00;100709.22;4923663;29;19978;-80
2023/04/21 03:40:54;;;;;;;;;;;;;;;6.12;100.00;100702.06;4919488;29;20014;-80
2023/04/21 03:43:20;;;;;;;;;;;;;;;6.14;100.00;100701.03;4888607;29;19926;-81
2023/04/21 03:45:46;;;;;;;;;;;;;;;6.16;100.00;100703.53;4911635;29;20033;-80
2023/04/21 03:48:11;;;;;;;;;;;;;;;6.20;100.00;100697.13;4902261;29;19925;-86
2023/04/21 03:50:37;;;;;;;;;;;;;;;6.20;100.00;100705.84;4903454;29;19923;-86
2023/04/21 03:53:03;;;;;;;;;;;;;;;6.17;100.00;100706.06;4933878;28;19927;-85
2023/04/21 03:55:28;;;;;;;;;;;;;;;6.19;100.00;100703.31;4895361;29;19923;-85
2023/04/21 03:57:54;;;;;;;;;;;;;;;6.23;100.00;100701.34;4907800;29;20475;-79
2023/04/21 04:00:20;;;;;;;;;;;;;;;6.27;100.00;100706.25;4921373;29;19930;-80
2023/04/21 04:02:45;;;;;;;;;;;;;;;6.29;100.00;100703.50;4901021;29;19927;-85
2023/04/21 04:05:11;;;;;;;;;;;;;;;6.26;100.00;100709.81;4936901;28;20001;-85
2023/04/21 04:07:37;;;;;;;;;;;;;;;6.29;100.00;100698.25;4921825;29;20003;-85
2023/04/21 04:10:03;;;;;;;;;;;;;;;6.33;100.00;100713.69;4924547;29;20022;-85
2023/04/21 04:12:29;;;;;;;;;;;;;;;6.33;100.00;100716.31;4930114;29;20480;-80
2023/04/21 04:14:55;;;;;;;;;;;;;;;6.30;100.00;100721.78;4922059;29;20376;-80
2023/04/21 04:17:21;;;;;;;;;;;;;;;6.24;100.00;100716.97;4915116;29;19971;-85
2023/04/21 04:19:46;;;;;;;;;;;;;;;6.19;100.00;100704.16;4923429;29;19927;-85
2023/04/21 04:22:12;;;;;;;;;;;;;;;6.15;100.00;100693.97;4923596;29;19922;-85
2023/04/21 04:24:38;;;;;;;;;;;;;;;6.11;100.00;100689.91;4926545;29;19927;-85
2023/04/21 04:27:04;;;;;;;;;;;;;;;6.06;100.00;100695.47;4920698;29;19954;-85
2023/04/21 04:29:31;;;;;;;;;;;;;;;5.99;100.00;100689.78;4911529;29;20575;-85
2023/04/21 04:31:57;;;;;;;;;;;;;;;5.94;100.00;100692.72;4904167;29;19939;-85
2023/04/21 04:34:23;;;;;;;;;;;;;;;5.90;100.00;100696.53;4928217;29;20550;-85
2023/04/21 04:36:49;;;;;;;;;;;;;;;5.87;100.00;100693.28;4929746;29;19927;-85
2023/04/21 04:39:16;;;;;;;;;;;;;;;5.80;100.00;100690.22;4941744;28;19919;-85
2023/04/21 04:41:41;;;;;;;;;;;;;;;5.77;100.00;100701.78;4930695;28;20336;-80
2023/04/21 04:44:07;;;;;;;;;;;;;;;5.73;100.00;100689.00;4922185;29;19923;-80
2023/04/21 04:46:34;;;;;;;;;;;;;;;5.67;100.00;100693.72;4922552;29;19923;-85
2023/04/21 04:49:00;;;;;;;;;;;;;;;5.67;100.00;100708.63;4919446;29;19919;-84
2023/04/21 04:51:26;;;;;;;;;;;;;;;5.66;100.00;100694.66;4927459;29;19918;-85
2023/04/21 04:53:52;;;;;;;;;;;;;;;5.66;100.00;100691.19;4927654;29;20035;-85
2023/04/21 04:56:18;;;;;;;;;;;;;;;5.59;100.00;100682.91;4940632;28;19930;-85
2023/04/21 04:58:45;;;;;;;;;;;;;;;5.51;100.00;100678.19;4942836;29;19923;-85
2023/04/21 05:01:15;;;;;;;;;;;;;;;5.46;100.00;100678.50;4919265;29;19923;-85
2023/04/21 05:03:41;;;;;;;;;;;;;;;5.42;100.00;100681.44;4901358;29;19923;-85
2023/04/21 05:06:07;;;;;;;;;;;;;;;5.36;100.00;100685.34;4911023;29;19938;-84
2023/04/21 05:08:32;;;;;;;;;;;;;;;5.31;100.00;100690.03;4891593;29;19923;-85
2023/04/21 05:10:58;;;;;;;;;;;;;;;5.26;100.00;100682.50;4915168;29;19929;-80
2023/04/21 05:13:24;;;;;;;;;;;;;;;5.22;100.00;100684.47;4921406;29;20007;-80
2023/04/21 05:15:55;;;;;;;;;;;;;;;5.22;100.00;100678.41;4921078;29;19923;-81
2023/04/21 05:18:21;;;;;;;;;;;;;;;5.17;100.00;100668.25;4910084;29;20283;-85
2023/04/21 05:20:47;;;;;;;;;;;;;;;5.13;100.00;100674.63;4908672;29;20426;-85
2023/04/21 05:23:13;;;;;;;;;;;;;;;5.05;100.00;100674.28;4915092;29;20018;-85
2023/04/21 05:25:38;;;;;;;;;;;;;;;4.94;100.00;100670.59;4930853;29;19922;-85
2023/04/21 05:28:04;;;;;;;;;;;;;;;4.89;100.00;100679.72;4927357;29;19926;-84
2023/04/21 05:30:30;;;;;;;;;;;;;;;4.84;100.00;100685.28;4925164;29;19919;-85
2023/04/21 05:32:55;;;;;;;;;;;;;;;4.80;100.00;100676.75;4911180;29;20365;-85
2023/04/21 05:35:21;;;;;;;;;;;;;;;4.78;100.00;100672.59;4918952;29;20269;-85
2023/04/21 05:37:47;;;;;;;;;;;;;;;4.77;100.00;100682.22;4918244;29;20018;-85
2023/04/21 05:40:12;;;;;;;;;;;;;;;4.76;100.00;100664.78;4923577;29;20365;-85
2023/04/21 05:42:38;;;;;;;;;;;;;;;4.76;100.00;100659.56;4893683;29;19926;-85
2023/04/21 05:45:04;;;;;;;;;;;;;;;4.77;100.00;100670.88;4916999;29;19941;-85
2023/04/21 05:47:30;;;;;;;;;;;;;;;4.76;100.00;100672.66;4932615;29;19919;-85
2023/04/21 05:49:55;;;;;;;;;;;;;;;4.76;100.00;100682.31;4910037;29;19958;-85
2023/04/21 05:52:21;;;;;;;;;;;;;;;4.75;100.00;100672.75;4926274;29;19968;-80
2023/04/21 05:54:47;;;;;;;;;;;;;;;4.81;100.00;100664.53;4911957;29;19926;-80
2023/04/21 05:57:13;;;;;;;;;;;;;;;4.88;100.00;100659.69;4922374;29;19930;-85
2023/04/21 05:59:38;;;;;;;;;;;;;;;4.94;100.00;100657.50;4930881;29;19923;-85
2023/04/21 06:02:04;;;;;;;;;;;;;;;5.04;100.00;100664.75;4928255;29;20031;-85
2023/04/21 06:04:29;;;;;;;;;;;;;;;5.08;100.00;100653.97;4932400;29;20356;-85
2023/04/21 06:06:55;;;;;;;;;;;;;;;5.14;100.00;100655.34;4926932;29;19926;-85
2023/04/21 06:09:21;;;;;;;;;;;;;;;5.22;100.00;100655.66;4926719;29;20017;-85
2023/04/21 06:11:46;;;;;;;;;;;;;;;5.28;100.00;100645.69;4929206;29;19923;-85
2023/04/21 06:14:12;;;;;;;;;;;;;;;5.31;100.00;100640.25;4943404;28;20033;-86
2023/04/21 06:16:38;;;;;;;;;;;;;;;5.33;100.00;100636.59;4928425;29;19922;-85
2023/04/21 06:19:03;;;;;;;;;;;;;;;5.38;100.00;100619.69;4930511;29;20002;-86
2023/04/21 06:21:29;;;;;;;;;;;;;;;5.46;100.00;100620.00;4910919;29;19922;-80
2023/04/21 06:23:55;;;;;;;;;;;;;;;5.56;100.00;100621.03;4926489;29;20287;-80
2023/04/21 06:26:21;;;;;;;;;;;;;;;5.69;100.00;100625.41;4927330;29;19930;-85
2023/04/21 06:28:46;;;;;;;;;;;;;;;5.81;100.00;100626.34;4901809;29;19930;-86
2023/04/21 06:31:15;;;;;;;;;;;;;;;5.94;100.00;100615.81;4914685;29;19946;-85
2023/04/21 06:33:41;;;;;;;;;;;;;;;6.01;100.00;100611.81;4910857;29;19919;-86
2023/04/21 06:36:07;;;;;;;;;;;;;;;6.07;100.00;100614.00;4944993;28;19949;-86
2023/04/21 06:38:32;;;;;;;;;;;;;;;6.15;100.00;100621.34;4909378;29;19930;-84
2023/04/21 06:40:58;;;;;;;;;;;;;;;6.23;100.00;100622.59;4917498;29;19926;-81
2023/04/21 06:43:24;;;;;;;;;;;;;;;6.33;100.00;100628.81;4891971;29;19970;-81
2023/04/21 06:45:49;;;;;;;;;;;;;;;6.48;100.00;100628.66;4914312;29;19934;-80
2023/04/21 06:48:15;;;;;;;;;;;;;;;6.56;100.00;100628.94;4908802;29;19927;-80
2023/04/21 06:50:43;;;;;;;;;;;;;;;6.68;100.00;100635.06;4926139;29;20360;-80
2023/04/21 06:53:10;;;;;;;;;;;;;;;6.70;100.00;100636.59;4935696;28;19977;-85
2023/04/21 06:55:36;;;;;;;;;;;;;;;6.69;100.00;100639.34;4927239;29;19923;-85
2023/04/21 06:58:01;;;;;;;;;;;;;;;6.73;100.00;100634.72;4918616;29;19930;-86
2023/04/21 07:00:27;;;;;;;;;;;;;;;6.85;100.00;100625.09;4920408;29;19944;-85
2023/04/21 07:02:53;;;;;;;;;;;;;;;6.94;100.00;100624.38;4933788;29;20364;-84
2023/04/21 07:05:19;;;;;;;;;;;;;;;6.94;100.00;100619.13;4924486;29;19923;-85
2023/04/21 07:07:44;;;;;;;;;;;;;;;6.93;100.00;100615.66;4910353;29;20419;-86
2023/04/21 07:10:10;;;;;;;;;;;;;;;6.90;100.00;100610.63;4932445;29;19922;-85
2023/04/21 07:12:35;;;;;;;;;;;;;;;7.01;100.00;100601.09;4918513;29;19923;-85
2023/04/21 07:15:01;;;;;;;;;;;;;;;7.26;100.00;100600.03;4934303;29;20342;-85
2023/04/21 07:17:27;;;;;;;;;;;;;;;7.56;100.00;100603.03;4899639;29;19929;-86
2023/04/21 07:19:53;;;;;;;;;;;;;;;7.74;100.00;100603.38;4908064;29;20022;-85
2023/04/21 07:22:18;;;;;;;;;;;;;;;7.90;100.00;100602.97;4940948;29;19934;-80
2023/04/21 07:24:44;;;;;;;;;;;;;;;7.88;100.00;100591.75;4910415;29;19981;-80
2023/04/21 07:27:09;;;;;;;;;;;;;;;8.00;100.00;100589.94;4936050;28;19941;-86
2023/04/21 07:29:36;;;;;;;;;;;;;;;8.14;100.00;100578.28;4925845;29;19923;-86
2023/04/21 07:32:01;;;;;;;;;;;;;;;8.32;100.00;100573.31;4908277;29;19966;-86
2023/04/21 07:34:27;;;;;;;;;;;;;;;8.30;100.00;100562.06;4912338;29;19923;-86
2023/04/21 07:36:56;;;;;;;;;;;;;;;8.15;100.00;100573.84;4917424;29;19929;-87
2023/04/21 07:39:21;;;;;;;;;;;;;;;8.15;100.00;100574.69;4916264;29;19923;-88
2023/04/21 07:41:47;;;;;;;;;;;;;;;8.35;100.00;100574.84;4941598;29;19929;-87
2023/04/21 07:44:13;;;;;;;;;;;;;;;8.38;100.00;100576.38;4914718;29;19929;-87
2023/04/21 07:46:38;;;;;;;;;;;;;;;8.57;100.00;100575.72;4941322;29;19985;-87
2023/04/21 07:49:04;;;;;;;;;;;;;;;8.66;100.00;100582.84;4913446;29;19919;-89
2023/04/21 07:51:30;;;;;;;;;;;;;;;8.69;100.00;100579.16;4925380;29;19919;-88
2023/04/21 07:53:56;;;;;;;;;;;;;;;8.65;100.00;100569.81;4923886;29;19926;-87
2023/04/21 07:56:22;;;;;;;;;;;;;;;8.58;100.00;100572.16;4941889;29;19923;-87
2023/04/21 07:58:47;;;;;;;;;;;;;;;8.58;100.00;100563.41;4936799;29;19923;-88
2023/04/21 08:01:13;;;;;;;;;;;;;;;8.57;100.00;100573.09;4922775;29;19952;-88
2023/04/21 08:03:39;;;;;;;;;;;;;;;8.55;100.00;100570.56;4918340;29;19931;-87
2023/04/21 08:06:04;;;;;;;;;;;;;;;8.61;100.00;100560.50;4904931;28;20572;-86
2023/04/21 08:08:30;;;;;;;;;;;;;;;8.67;100.00;100552.94;4900261;29;19930;-85
2023/04/21 08:10:55;;;;;;;;;;;;;;;8.68;100.00;100543.19;4931277;29;19926;-85
2023/04/21 08:13:24;;;;;;;;;;;;;;;8.73;100.00;100529.66;4917110;29;20329;-78
2023/04/21 08:15:50;;;;;;;;;;;;;;;8.83;100.00;100540.22;4910542;29;19923;-79
2023/04/21 08:18:17;;;;;;;;;;;;;;;8.94;100.00;100534.88;4893354;29;19918;-88
2023/04/21 08:20:44;;;;;;;;;;;;;;;9.02;100.00;100536.88;4913592;29;19923;-86
2023/04/21 08:23:09;;;;;;;;;;;;;;;9.16;100.00;100536.50;4887126;29;19927;-87
2023/04/21 08:25:35;;;;;;;;;;;;;;;9.38;100.00;100531.19;4906162;29;19919;-87
2023/04/21 08:28:01;;;;;;;;;;;;;;;9.25;100.00;100531.41;4939200;28;19918;-87
2023/04/21 08:30:27;;;;;;;;;;;;;;;9.32;100.00;100529.91;4931404;29;20368;-88
2023/04/21 08:32:53;;;;;;;;;;;;;;;9.24;100.00;100516.53;4910933;29;19938;-88
2023/04/21 08:35:18;;;;;;;;;;;;;;;9.10;100.00;100513.31;4893608;29;19926;-87
2023/04/21 08:37:44;;;;;;;;;;;;;;;8.96;100.00;100524.22;4931279;29;19918;-88
2023/04/21 08:40:10;;;;;;;;;;;;;;;8.85;100.00;100525.13;4900331;29;19926;-87
2023/04/21 08:42:36;;;;;;;;;;;;;;;8.78;100.00;100509.84;4937650;29;19923;-87
2023/04/21 08:45:02;;;;;;;;;;;;;;;8.72;100.00;100514.78;4938535;28;19926;-87
2023/04/21 08:47:29;;;;;;;;;;;;;;;8.65;100.00;100514.47;4932816;29;19919;-87
2023/04/21 08:49:55;;;;;;;;;;;;;;;8.70;100.00;100514.94;4907832;29;20439;-88
2023/04/21 08:52:21;;;;;;;;;;;;;;;8.78;100.00;100509.84;4921441;29;19970;-88
2023/04/21 08:54:50;;;;;;;;;;;;;;;8.85;100.00;100518.06;4897386;29;19919;-86
2023/04/21 08:57:16;;;;;;;;;;;;;;;8.92;100.00;100518.34;4898194;29;19947;-87
2023/04/21 08:59:43;;;;;;;;;;;;;;;9.05;100.00;100520.78;4895891;29;20714;-86
2023/04/21 09:02:16;;;;;;;;;;;;;;;9.05;100.00;100510.22;4895372;29;20393;-88
2023/04/21 09:04:50;;;;;;;;;;;;;;;9.13;100.00;100510.41;4908207;29;20268;-87
2023/04/21 09:07:34;;;;;;;;;;;;;;;9.21;100.00;100498.34;4917575;29;20292;-91
2023/04/21 09:10:02;;;;;;;;;;;;;;;9.20;100.00;100499.31;4915732;28;19930;-89
2023/04/21 09:12:28;;;;;;;;;;;;;;;9.36;100.00;100512.84;4929906;29;19963;-85
2023/04/21 09:14:54;;;;;;;;;;;;;;;9.50;100.00;100505.50;4901494;29;19930;-89
2023/04/21 09:17:32;;;;;;;;;;;;;;;9.56;100.00;100497.03;4917734;29;19920;-86
2023/04/21 09:20:18;;;;;;;;;;;;;;;9.57;100.00;100501.38;4918492;29;20409;-87
2023/04/21 09:22:44;;;;;;;;;;;;;;;9.75;100.00;100485.69;4935295;29;19949;-88
2023/04/21 09:25:09;;;;;;;;;;;;;;;9.67;100.00;100480.25;4936693;29;20360;-87
2023/04/21 09:27:35;;;;;;;;;;;;;;;9.96;100.00;100462.75;4911485;29;19920;-87
2023/04/21 09:30:05;;;;;;;;;;;;;;;10.25;100.00;100448.69;4915372;29;19919;-88
2023/04/21 09:32:38;;;;;;;;;;;;;;;10.37;100.00;100436.13;4905225;29;20014;-88
2023/04/21 09:35:05;;;;;;;;;;;;;;;10.36;100.00;100435.31;4919002;29;19926;-87
2023/04/21 09:37:33;;;;;;;;;;;;;;;10.40;100.00;100449.09;4907365;29;19930;-87
2023/04/21 09:40:02;;;;;;;;;;;;;;;10.62;100.00;100447.91;4913334;29;20029;-88
2023/04/21 09:42:29;;;;;;;;;;;;;;;10.61;100.00;100430.41;4915195;29;19930;-89
2023/04/21 09:44:55;;;;;;;;;;;;;;;10.62;100.00;100431.25;4925610;29;19926;-89
2023/04/21 09:47:21;;;;;;;;;;;;;;;10.72;100.00;100439.94;4915818;29;19919;-91
2023/04/21 09:49:50;;;;;;;;;;;;;;;10.78;100.00;100441.19;4884361;29;19927;-88
2023/04/21 09:52:16;;;;;;;;;;;;;;;10.77;100.00;100437.72;4912847;29;20801;-88
2023/04/21 09:54:49;;;;;;;;;;;;;;;10.97;100.00;100442.91;4904316;29;19923;-90
2023/04/21 09:57:19;;;;;;;;;;;;;;;11.16;100.00;100436.66;4892345;29;20074;-87
2023/04/21 09:59:46;;;;;;;;;;;;;;;11.36;100.00;100415.38;4898606;29;19938;-87
2023/04/21 10:02:12;;;;;;;;;;;;;;;11.50;100.00;100421.13;4920135;29;20452;-87
2023/04/21 10:04:40;;;;;;;;;;;;;;;11.43;100.00;100412.13;4901213;29;20399;-88
2023/04/21 10:07:05;;;;;;;;;;;;;;;11.36;100.00;100431.25;4902598;29;19983;-89
2023/04/21 10:09:39;;;;;;;;;;;;;;;11.03;100.00;100423.81;4897980;29;19919;-88
2023/04/21 10:12:05;;;;;;;;;;;;;;;11.33;100.00;100410.41;4917223;29;20332;-89
2023/04/21 10:14:30;;;;;;;;;;;;;;;11.32;100.00;100407.91;4919170;29;20009;-87
2023/04/21 10:17:02;;;;;;;;;;;;;;;11.53;100.00;100408.44;4903441;29;19920;-90
2023/04/21 10:19:28;;;;;;;;;;;;;;;11.88;100.00;100413.03;4912824;29;20022;-89
2023/04/21 10:21:57;;;;;;;;;;;;;;;11.80;100.00;100408.50;4919317;29;20369;-89
2023/04/21 10:24:23;;;;;;;;;;;;;;;11.72;100.00;100403.13;4912194;29;19924;-89
2023/04/21 10:26:49;;;;;;;;;;;;;;;11.59;100.00;100399.06;4917624;29;19950;-89
2023/04/21 10:29:15;;;;;;;;;;;;;;;11.56;100.00;100396.72;4905749;29;19926;-89
2023/04/21 10:31:43;;;;;;;;;;;;;;;11.48;100.00;100391.34;4928081;29;19920;-88
2023/04/21 10:34:12;;;;;;;;;;;;;;;11.36;100.00;100396.03;4909005;29;19929;-88
2023/04/21 10:36:47;;;;;;;;;;;;;;;11.26;100.00;100389.00;4912137;29;19930;-87
2023/04/21 10:39:25;;;;;;;;;;;;;;;11.15;100.00;100386.56;4894411;29;20028;-87
2023/04/21 10:41:53;;;;;;;;;;;;;;;11.00;100.00;100389.72;4925701;29;20030;-87
2023/04/21 10:44:20;;;;;;;;;;;;;;;11.02;100.00;100379.00;4884515;29;19969;-87
2023/04/21 10:46:50;;;;;;;;;;;;;;;11.19;100.00;100376.50;4927753;29;20319;-87
2023/04/21 10:49:25;;;;;;;;;;;;;;;11.27;100.00;100361.56;4905414;29;20300;-87
2023/04/21 10:52:01;;;;;;;;;;;;;;;11.31;100.00;100361.25;4896255;29;19919;-88
2023/04/21 10:54:36;;;;;;;;;;;;;;;11.25;100.00;100352.09;4917255;29;19927;-86
2023/04/21 10:57:05;;;;;;;;;;;;;;;11.19;100.00;100348.25;4921286;29;19919;-87
2023/04/21 10:59:30;;;;;;;;;;;;;;;11.31;100.00;100348.03;4920331;29;19919;-88
2023/04/21 11:01:56;;;;;;;;;;;;;;;11.22;100.00;100340.00;4911557;29;19924;-87
2023/04/21 11:04:22;;;;;;;;;;;;;;;11.25;100.00;100341.50;4899895;29;20029;-89
2023/04/21 11:07:06;;;;;;;;;;;;;;;11.48;100.00;100338.41;4938924;28;20450;-88
2023/04/21 11:09:32;;;;;;;;;;;;;;;11.55;100.00;100331.50;4919266;29;19919;-85
2023/04/21 11:11:58;;;;;;;;;;;;;;;11.61;100.00;100324.78;4905038;29;20601;-79
2023/04/21 11:14:24;;;;;;;;;;;;;;;11.66;100.00;100315.38;4915345;29;20362;-79
2023/04/21 11:16:50;;;;;;;;;;;;;;;11.90;100.00;100315.69;4933225;29;19919;-87
2023/04/21 11:19:16;;;;;;;;;;;;;;;11.98;100.00;100289.25;4951329;28;19925;-87
2023/04/21 11:21:41;;;;;;;;;;;;;;;12.04;100.00;100296.56;4907734;29;19927;-88
2023/04/21 11:24:07;;;;;;;;;;;;;;;12.16;100.00;100293.69;4928228;29;20416;-85
2023/04/21 11:26:34;;;;;;;;;;;;;;;12.14;100.00;100295.66;4910822;29;19974;-88
2023/04/21 11:29:01;;;;;;;;;;;;;;;12.13;100.00;100286.91;4906880;29;19919;-86
2023/04/21 11:31:28;;;;;;;;;;;;;;;12.27;100.00;100280.16;4911282;29;20392;-87
2023/04/21 11:33:54;;;;;;;;;;;;;;;12.40;100.00;100284.19;4913036;29;20016;-87
2023/04/21 11:36:20;;;;;;;;;;;;;;;12.59;100.00;100287.53;4920025;29;19923;-87
2023/04/21 11:38:46;;;;;;;;;;;;;;;12.51;100.00;100273.28;4889548;29;19931;-86
2023/04/21 11:41:19;;;;;;;;;;;;;;;12.24;100.00;100277.00;4927159;29;20049;-87
2023/04/21 11:43:45;;;;;;;;;;;;;;;12.18;100.00;100291.72;4860206;29;19922;-88
2023/04/21 11:46:17;;;;;;;;;;;;;;;12.23;100.00;100286.75;4924058;29;19919;-86
2023/04/21 11:48:43;;;;;;;;;;;;;;;12.27;100.00;100289.91;4907575;29;19923;-86
2023/04/21 11:51:16;;;;;;;;;;;;;;;12.43;100.00;100294.47;4930570;29;19931;-88
2023/04/21 11:53:42;;;;;;;;;;;;;;;12.36;100.00;100280.19;4913610;29;19919;-88
2023/04/21 11:56:08;;;;;;;;;;;;;;;12.29;100.00;100272.03;4900541;29;19923;-86
2023/04/21 11:58:33;;;;;;;;;;;;;;;12.36;100.00;100246.56;4919960;29;19926;-88
2023/04/21 12:01:05;;;;;;;;;;;;;;;12.51;100.00;100246.78;4913548;29;20281;-86
2023/04/21 12:03:31;;;;;;;;;;;;;;;12.51;100.00;100252.06;4929696;29;20261;-88
2023/04/21 12:05:57;;;;;;;;;;;;;;;12.64;100.00;100258.72;4944827;28;19923;-91
2023/04/21 12:08:23;;;;;;;;;;;;;;;12.70;100.00;100259.88;4927063;29;19923;-88
2023/04/21 12:10:48;;;;;;;;;;;;;;;12.76;100.00;100254.78;4920745;29;19923;-90
2023/04/21 12:13:27;;;;;;;;;;;;;;;12.93;100.00;100260.09;4899274;29;19926;-88
2023/04/21 12:15:53;;;;;;;;;;;;;;;12.92;100.00;100215.97;4925960;29;19923;-88
2023/04/21 12:18:18;;;;;;;;;;;;;;;12.80;100.00;100239.38;4911569;29;19930;-88
2023/04/21 12:20:48;;;;;;;;;;;;;;;13.04;100.00;100232.41;4911969;29;20307;-88
2023/04/21 12:23:13;;;;;;;;;;;;;;;12.96;100.00;100232.41;4892860;29;20288;-88
2023/04/21 12:25:39;;;;;;;;;;;;;;;12.96;100.00;100235.06;4938208;29;19934;-86
2023/04/21 12:28:06;;;;;;;;;;;;;;;12.72;100.00;100228.75;4918159;29;20399;-87
2023/04/21 12:30:32;;;;;;;;;;;;;;;13.06;100.00;100227.75;4922346;29;19923;-87